This is the latest recevied weather packets stored in our database for station/object VE7GEL. If no packets are shown the sender has not sent any weather packets the latest 10 day(s).
| Time | Temp. | Humidity | Pressure | Rain* | Wind** | Luminosity | Snow |
|---|---|---|---|---|---|---|---|
| 1777355131 | 11.67° C | 81% | 1017.5 hPa | 0 mm | - | 0 W/m² | - |
| 1777355103 | 11.67° C | 81% | 1017.8 hPa | 0 mm | - | 0 W/m² | - |
| 1777354231 | 12.22° C | 80% | 1017.5 hPa | 0 mm | - | 0 W/m² | - |
| 1777353329 | 12.22° C | 76% | 1017.4 hPa | 0 mm | - | 0 W/m² | - |
| 1777353303 | 12.22° C | 76% | 1017.7 hPa | 0 mm | - | 0 W/m² | - |
| 1777352430 | 12.22° C | 79% | 1017.4 hPa | 0 mm | - | 0 W/m² | - |
| 1777351531 | 12.22° C | 80% | 1017.3 hPa | 0 mm | - | 0 W/m² | - |
| 1777351502 | 12.22° C | 80% | 1017.6 hPa | 0 mm | - | 0 W/m² | - |
| 1777350629 | 12.22° C | 79% | 1017.3 hPa | 0 mm | - | 0 W/m² | - |
| 1777349727 | 12.22° C | 81% | 1017.2 hPa | 0 mm | - | 0 W/m² | - |
| 1777348824 | 12.22° C | 80% | 1017.1 hPa | 0 mm | - | 0 W/m² | - |
| 1777347923 | 11.67° C | 83% | 1016.9 hPa | 0 mm | - | 0 W/m² | - |
| 1777347903 | 11.67° C | 83% | 1017.2 hPa | 0 mm | - | 0 W/m² | - |
| 1777347022 | 12.78° C | 81% | 1016.8 hPa | 0 mm | - | 0 W/m² | - |
| 1777346122 | 11.67° C | 83% | 1016.7 hPa | 0 mm | - | 2 W/m² | - |
| 1777345223 | 11.67° C | 83% | 1016.6 hPa | 0 mm | - | 9 W/m² | - |
| 1777344324 | 12.22° C | 82% | 1016.6 hPa | 0 mm | - | 16 W/m² | - |
| 1777344302 | 12.22° C | 82% | 1017 hPa | 0 mm | - | 16 W/m² | - |
| 1777343422 | 12.78° C | 78% | 1016.6 hPa | 0 mm | - | 24 W/m² | - |
| 1777343402 | 12.78° C | 78% | 1016.9 hPa | 0 mm | - | 24 W/m² | - |
| 1777342523 | 12.78° C | 77% | 1016.6 hPa | 0 mm | - | 26 W/m² | - |
| 1777342503 | 12.78° C | 77% | 1016.9 hPa | 0 mm | - | 26 W/m² | - |
| 1777341621 | 12.78° C | 74% | 1016.5 hPa | 0 mm | - | 36 W/m² | - |
| 1777340721 | 12.78° C | 77% | 1016.4 hPa | 0 mm | - | 50 W/m² | - |
| 1777339819 | 12.22° C | 79% | 1016.5 hPa | 0 mm | - | 38 W/m² | - |
* Rain latest hour (hover to see other rain measurements)
** Current wind speed in m/s (hover to see current wind gust speed)